Pagina principale
METAR-TAF:

METAR-TAF

Aeroporti :

Trieste, Italia

latitudine: 45-39N, longitudine: 013-45E, altezza: 8 m

Osservazione

Il bollettino è stato emesso 48 minuti fa, alle 17:55 UTC
Vento 3 kt da est/sud-est
Temperature 14°C
Umidità 94%
Pressione 1004 hPa
Visibilità 10 km o più
Nuvoloso ad un'altezza di 2500 ft
Nubi sparse ad un'altezza di 3000 ft
pioggia

METAR: LIVT 191755Z 11003KT 9999 RA BKN025 SCT030 14/13 Q1004

Ora: 20:43 (18:43 UTC)


TAF: mancante

Osservazioni e previsioni meteorologiche di più di 4000 aeroporti (messaggi METAR e TAF).

Le stazioni disponibili sono rappresentate dai dischi gialli e rossi sulla carta.

Puntare il mouse per vedere il nome della stazione.

Clicca sopra per visualizzare le osservazioni e previsioni meteorologiche.

Per cambiare la mappa : fare clic sui pulsanti verdi con una croce nera per ingrandire, il pulsante verde con un trattino per diminuire, o sulla freccia verde per le mappe adiacenti.


METAR-TAF: